Time;durP1;ratioP1;P1;durP2;ratioP2;P2;SDS_P1;SDS_P2;PMS_P1;PMS_P2;Temp;Humidity;BMP_temperature;BMP_pressure;BME280_temperature;BME280_humidity;BME280_pressure;Samples;Min_cycle;Max_cycle;Signal;HPM_P1;HPM_P2
2022/07/30 00:01:22;;;;;;;4.50;2.87;;;;;;;16.78;100.00;96515.44;5051999;28;20318;-78
2022/07/30 00:03:49;;;;;;;3.43;2.70;;;;;;;16.79;100.00;96513.53;5017570;28;20252;-77
2022/07/30 00:06:16;;;;;;;4.63;2.93;;;;;;;16.80;100.00;96518.72;5019474;28;20210;-77
2022/07/30 00:08:44;;;;;;;5.07;2.83;;;;;;;16.76;100.00;96524.97;5025990;28;20208;-77
2022/07/30 00:11:11;;;;;;;4.20;2.77;;;;;;;16.75;100.00;96512.44;5015365;28;20202;-77
2022/07/30 00:13:38;;;;;;;3.00;2.70;;;;;;;16.76;100.00;96511.34;5028814;28;20215;-77
2022/07/30 00:16:06;;;;;;;4.17;2.73;;;;;;;16.73;100.00;96515.41;5037337;28;20223;-78
2022/07/30 00:18:33;;;;;;;3.00;2.70;;;;;;;16.70;100.00;96509.66;5021886;28;20206;-78
2022/07/30 00:21:00;;;;;;;4.77;2.80;;;;;;;16.73;100.00;96517.31;5034108;28;20223;-77
2022/07/30 00:23:27;;;;;;;3.30;3.00;;;;;;;16.70;100.00;96515.94;5025670;28;20287;-77
2022/07/30 00:25:56;;;;;;;7.13;3.10;;;;;;;16.63;100.00;96521.63;5020857;28;20203;-77
2022/07/30 00:28:23;;;;;;;3.80;3.00;;;;;;;16.61;100.00;96520.25;5026424;28;20210;-77
2022/07/30 00:30:51;;;;;;;4.60;3.10;;;;;;;16.62;100.00;96524.63;5037146;28;20199;-77
2022/07/30 00:33:18;;;;;;;6.77;3.17;;;;;;;16.61;100.00;96522.97;5022448;28;20298;-77
2022/07/30 00:35:45;;;;;;;2.97;2.70;;;;;;;16.63;100.00;96518.91;5023766;28;20206;-77
2022/07/30 00:38:13;;;;;;;3.23;2.80;;;;;;;16.55;100.00;96513.91;5024339;28;20190;-77
2022/07/30 00:40:41;;;;;;;3.03;2.83;;;;;;;16.55;100.00;96516.66;5024815;28;20206;-78
2022/07/30 00:43:14;;;;;;;6.87;3.10;;;;;;;16.56;100.00;96509.28;5036630;28;20202;-78
2022/07/30 00:45:42;;;;;;;5.67;3.13;;;;;;;16.57;100.00;96511.75;5026187;28;20211;-77
2022/07/30 00:48:10;;;;;;;4.47;2.97;;;;;;;16.63;100.00;96513.44;5021182;28;20346;-77
2022/07/30 00:50:37;;;;;;;3.63;3.10;;;;;;;16.60;100.00;96511.22;5019558;28;20241;-77
2022/07/30 00:53:04;;;;;;;4.37;3.00;;;;;;;16.58;100.00;96515.31;5019500;28;20228;-78
2022/07/30 00:55:32;;;;;;;3.30;3.00;;;;;;;16.63;100.00;96520.81;5041726;28;20218;-78
2022/07/30 00:57:59;;;;;;;4.07;3.00;;;;;;;16.64;100.00;96520.53;5024618;28;20199;-77
2022/07/30 01:00:28;;;;;;;3.47;3.13;;;;;;;16.61;100.00;96515.59;5025472;28;20222;-77
2022/07/30 01:02:55;;;;;;;4.13;3.20;;;;;;;16.57;100.00;96510.94;5014686;28;20215;-77
2022/07/30 01:05:23;;;;;;;3.50;3.00;;;;;;;16.58;100.00;96518.84;5050845;28;20223;-77
2022/07/30 01:07:51;;;;;;;4.00;3.27;;;;;;;16.54;100.00;96508.72;5025666;28;20207;-78
2022/07/30 01:10:18;;;;;;;4.90;3.03;;;;;;;16.60;100.00;96515.84;5016285;28;20223;-77
2022/07/30 01:12:45;;;;;;;3.23;2.87;;;;;;;16.55;100.00;96513.91;5018154;28;20226;-77
2022/07/30 01:15:13;;;;;;;4.13;2.83;;;;;;;16.53;100.00;96504.34;5038601;28;20312;-77
2022/07/30 01:17:42;;;;;;;4.90;3.00;;;;;;;16.52;100.00;96517.16;5022311;28;20211;-78
2022/07/30 01:20:14;;;;;;;8.00;3.40;;;;;;;16.56;100.00;96512.84;5011460;28;20230;-77
2022/07/30 01:22:51;;;;;;;6.33;2.90;;;;;;;16.58;100.00;96510.69;5019548;28;20237;-77
2022/07/30 01:25:29;;;;;;;3.37;3.07;;;;;;;16.57;100.00;96506.31;5053849;28;20264;-77
2022/07/30 01:28:02;;;;;;;4.33;3.10;;;;;;;16.58;100.00;96507.94;5021016;28;20253;-77
2022/07/30 01:30:32;;;;;;;3.30;3.00;;;;;;;16.59;100.00;96514.19;5020078;28;20209;-78
2022/07/30 01:33:01;;;;;;;5.57;3.30;;;;;;;16.60;100.00;96513.94;5029200;28;20202;-77
2022/07/30 01:35:30;;;;;;;3.03;2.73;;;;;;;16.64;100.00;96522.44;5020348;28;20218;-77
2022/07/30 01:38:00;;;;;;;3.40;3.10;;;;;;;16.66;100.00;96512.09;5019701;28;20217;-79
2022/07/30 01:40:28;;;;;;;3.40;3.10;;;;;;;16.63;100.00;96508.00;5023840;28;20300;-77
2022/07/30 01:43:02;;;;;;;5.27;3.00;;;;;;;16.66;100.00;96508.56;5018821;28;20286;-77
2022/07/30 01:45:31;;;;;;;5.93;3.23;;;;;;;16.66;100.00;96514.84;5023408;28;20233;-77
2022/07/30 01:48:00;;;;;;;4.33;2.70;;;;;;;16.67;100.00;96510.19;5019005;28;20219;-77
2022/07/30 01:50:29;;;;;;;3.93;2.80;;;;;;;16.70;100.00;96501.47;5024874;28;20198;-77
2022/07/30 01:52:58;;;;;;;5.03;2.67;;;;;;;16.70;100.00;96507.75;5021359;28;20210;-77
2022/07/30 01:55:37;;;;;;;6.07;2.80;;;;;;;16.60;100.00;96500.31;5019082;28;20242;-77
2022/07/30 01:58:10;;;;;;;4.23;3.00;;;;;;;16.65;100.00;96507.72;5019925;28;20215;-77
2022/07/30 02:00:42;;;;;;;4.20;3.23;;;;;;;16.60;100.00;96496.75;5021064;28;20274;-79
2022/07/30 02:03:11;;;;;;;3.40;3.00;;;;;;;16.59;100.00;96506.84;5053860;28;20280;-77
2022/07/30 02:05:40;;;;;;;3.50;2.60;;;;;;;16.59;100.00;96506.84;5049581;28;20207;-77
2022/07/30 02:08:13;;;;;;;4.33;3.10;;;;;;;16.53;100.00;96507.06;5026744;28;20225;-77
2022/07/30 02:10:44;;;;;;;5.07;2.90;;;;;;;16.57;100.00;96509.03;5023482;28;20195;-77
2022/07/30 02:13:20;;;;;;;7.63;3.13;;;;;;;16.59;100.00;96515.00;5037584;28;20214;-78
2022/07/30 02:15:54;;;;;;;4.40;2.70;;;;;;;16.59;100.00;96511.47;5050955;28;20218;-77
2022/07/30 02:18:28;;;;;;;3.30;3.00;;;;;;;16.58;100.00;96510.69;5020912;28;20203;-77
2022/07/30 02:21:01;;;;;;;3.30;3.00;;;;;;;16.59;100.00;96503.28;5020116;28;20213;-77
2022/07/30 02:23:31;;;;;;;3.87;3.03;;;;;;;16.56;100.00;96503.84;5050359;28;20214;-77
2022/07/30 02:26:00;;;;;;;4.70;3.00;;;;;;;16.55;100.00;96502.19;5024884;28;20226;-78
2022/07/30 02:28:30;;;;;;;5.07;2.83;;;;;;;16.56;100.00;96496.47;5017516;28;20200;-78
2022/07/30 02:31:00;;;;;;;4.23;3.10;;;;;;;16.46;100.00;96498.31;5036968;28;20295;-77
2022/07/30 02:33:33;;;;;;;5.37;3.47;;;;;;;16.40;100.00;96502.94;5060886;28;20211;-77
2022/07/30 02:36:03;;;;;;;3.90;3.50;;;;;;;16.40;100.00;96500.22;5019814;28;20207;-77
2022/07/30 02:38:32;;;;;;;4.93;3.40;;;;;;;16.40;100.00;96497.47;5035702;28;20231;-79
2022/07/30 02:41:01;;;;;;;3.77;2.77;;;;;;;16.43;100.00;96501.56;5019598;28;20206;-77
2022/07/30 02:43:32;;;;;;;6.20;3.20;;;;;;;16.44;100.00;96501.31;5053368;28;20234;-77
2022/07/30 02:46:01;;;;;;;3.90;3.20;;;;;;;16.39;100.00;96486.84;5017206;28;20203;-77
2022/07/30 02:48:47;;;;;;;4.13;3.73;;;;;;;16.37;100.00;96489.81;5023605;28;20280;-77
2022/07/30 02:51:17;;;;;;;5.33;3.17;;;;;;;16.37;100.00;96489.00;5021549;28;20226;-77
2022/07/30 02:53:46;;;;;;;3.70;3.30;;;;;;;16.35;100.00;96491.97;5019133;28;20207;-77
2022/07/30 02:56:15;;;;;;;3.80;3.10;;;;;;;16.25;100.00;96484.56;5018419;28;20223;-77
2022/07/30 02:58:45;;;;;;;5.07;3.33;;;;;;;16.23;100.00;96494.91;5035206;28;20204;-77
2022/07/30 03:01:15;;;;;;;5.33;4.03;;;;;;;16.25;100.00;96483.72;5039692;28;20206;-79
2022/07/30 03:03:45;;;;;;;4.67;3.40;;;;;;;16.28;100.00;96475.03;5017340;28;20212;-77
2022/07/30 03:06:14;;;;;;;4.73;3.53;;;;;;;16.41;100.00;96473.78;5018647;28;20203;-78
2022/07/30 03:08:43;;;;;;;3.83;3.30;;;;;;;16.33;100.00;96477.00;5020547;28;21240;-77
2022/07/30 03:11:11;;;;;;;4.10;3.47;;;;;;;16.34;100.00;96473.97;5062492;28;20264;-77
2022/07/30 03:13:40;;;;;;;5.03;3.87;;;;;;;16.38;100.00;96480.56;5021621;28;20199;-77
2022/07/30 03:16:10;;;;;;;5.93;2.97;;;;;;;16.32;100.00;96478.91;5021039;28;20199;-77
2022/07/30 03:18:40;;;;;;;4.90;3.00;;;;;;;16.38;100.00;96483.28;5054682;28;20234;-77
2022/07/30 03:21:10;;;;;;;8.60;3.77;;;;;;;16.36;100.00;96477.28;5013005;28;20210;-77
2022/07/30 03:23:41;;;;;;;3.90;3.10;;;;;;;16.37;100.00;96483.53;5027592;28;20507;-77
2022/07/30 03:26:09;;;;;;;6.90;3.27;;;;;;;16.37;100.00;96483.53;5055681;28;20239;-77
2022/07/30 03:28:39;;;;;;;3.70;2.80;;;;;;;16.40;100.00;96493.94;5024327;28;20194;-77
2022/07/30 03:31:09;;;;;;;3.13;2.80;;;;;;;16.43;100.00;96498.84;5029364;28;20305;-77
2022/07/30 03:33:37;;;;;;;4.70;3.07;;;;;;;16.47;100.00;96494.50;5023099;28;20231;-77
2022/07/30 03:36:06;;;;;;;3.40;3.10;;;;;;;16.42;100.00;96502.66;5015515;28;20207;-77
2022/07/30 03:38:34;;;;;;;4.57;2.77;;;;;;;16.40;100.00;96497.47;5024538;28;20295;-77
2022/07/30 03:41:03;;;;;;;6.83;5.23;;;;;;;16.37;100.00;96506.16;5027644;28;20201;-77
2022/07/30 03:43:31;;;;;;;7.50;6.80;;;;;;;16.36;100.00;96506.44;5021091;28;20238;-77
2022/07/30 03:46:01;;;;;;;7.20;4.83;;;;;;;16.29;100.00;96506.66;5025260;28;20210;-77
2022/07/30 03:48:34;;;;;;;4.37;3.13;;;;;;;16.24;100.00;96510.19;5023611;28;20207;-77
2022/07/30 03:51:03;;;;;;;6.77;6.07;;;;;;;16.30;100.00;96521.94;5055016;28;20265;-77
2022/07/30 03:53:31;;;;;;;9.27;8.47;;;;;;;16.31;100.00;96520.84;5024771;28;20230;-77
2022/07/30 03:56:37;;;;;;;8.03;7.40;;;;;;;16.32;100.00;96522.50;5028046;28;20223;-78
2022/07/30 03:59:10;;;;;;;4.40;4.00;;;;;;;16.37;100.00;96524.44;5054334;28;20217;-77
2022/07/30 04:01:40;;;;;;;8.50;3.70;;;;;;;16.37;100.00;96527.16;5027596;28;20618;-77
2022/07/30 04:04:17;;;;;;;3.33;3.03;;;;;;;16.36;100.00;96539.94;5024325;28;20218;-77
2022/07/30 04:06:44;;;;;;;3.40;3.10;;;;;;;16.37;100.00;96525.25;5055654;28;20299;-77
2022/07/30 04:09:12;;;;;;;3.40;3.07;;;;;;;16.40;100.00;96527.47;5024986;28;20199;-78
2022/07/30 04:11:40;;;;;;;4.47;3.50;;;;;;;16.45;100.00;96524.75;5025567;28;20226;-77
2022/07/30 04:14:08;;;;;;;5.03;3.33;;;;;;;16.36;100.00;96526.31;5019606;28;20975;-78
2022/07/30 04:16:47;;;;;;;5.40;3.20;;;;;;;16.35;100.00;96532.84;5034133;28;20298;-77
2022/07/30 04:19:23;;;;;;;5.57;3.17;;;;;;;16.38;100.00;96529.63;5031258;28;20264;-77
2022/07/30 04:21:52;;;;;;;5.33;3.50;;;;;;;16.35;100.00;96521.97;5021739;28;20299;-78
2022/07/30 04:24:20;;;;;;;3.67;3.30;;;;;;;16.34;100.00;96530.38;5023078;28;20204;-77
2022/07/30 04:26:48;;;;;;;3.37;3.07;;;;;;;16.31;100.00;96530.94;5019864;28;20202;-76
2022/07/30 04:29:18;;;;;;;3.67;3.03;;;;;;;16.31;100.00;96522.75;5027438;28;20286;-76
2022/07/30 04:31:45;;;;;;;5.13;3.37;;;;;;;16.29;100.00;96528.47;5024702;28;20199;-76
2022/07/30 04:34:36;;;;;;;3.83;3.30;;;;;;;16.32;100.00;96529.84;5016773;28;20207;-77
2022/07/30 04:37:08;;;;;;;3.73;3.20;;;;;;;16.32;100.00;96535.31;5024960;28;20214;-77
2022/07/30 04:39:35;;;;;;;5.13;3.30;;;;;;;16.28;100.00;96535.00;5027266;28;20202;-76
2022/07/30 04:42:02;;;;;;;3.90;3.50;;;;;;;16.30;100.00;96538.28;5024447;28;20226;-76
2022/07/30 04:44:34;;;;;;;5.77;3.10;;;;;;;16.33;100.00;96545.13;5025033;28;20231;-78
2022/07/30 04:47:27;;;;;;;3.33;3.03;;;;;;;16.35;100.00;96546.47;5027498;28;20215;-76
2022/07/30 04:50:38;;;;;;;4.53;3.50;;;;;;;16.37;100.00;96552.50;4975201;28;20216;-77
2022/07/30 04:53:08;;;;;;;3.77;3.43;;;;;;;16.39;100.00;96561.25;4957611;28;20208;-77
2022/07/30 04:55:42;;;;;;;6.07;3.40;;;;;;;16.45;100.00;96568.38;4996588;28;20234;-76
2022/07/30 04:58:12;;;;;;;3.10;2.80;;;;;;;16.52;100.00;96563.50;5021790;28;20226;-76
2022/07/30 05:00:40;;;;;;;4.00;3.17;;;;;;;16.40;100.00;96554.72;5051367;28;20199;-76
2022/07/30 05:03:11;;;;;;;4.23;3.30;;;;;;;16.46;100.00;96563.72;5019789;28;20245;-77
2022/07/30 05:05:41;;;;;;;3.73;3.27;;;;;;;16.55;100.00;96562.16;5015910;28;20306;-77
2022/07/30 05:08:09;;;;;;;6.63;3.80;;;;;;;16.61;100.00;96578.31;5027682;28;20259;-77
2022/07/30 05:10:38;;;;;;;6.20;3.17;;;;;;;16.70;100.00;96575.91;5025034;28;20206;-76
2022/07/30 05:13:11;;;;;;;3.40;3.07;;;;;;;16.72;100.00;96573.75;5055757;28;20207;-76
2022/07/30 05:15:38;;;;;;;4.77;3.17;;;;;;;16.74;100.00;96577.03;5019645;28;20298;-77
2022/07/30 05:18:07;;;;;;;4.63;3.30;;;;;;;16.78;100.00;96586.31;5023942;28;20290;-77
2022/07/30 05:20:39;;;;;;;8.67;3.87;;;;;;;16.80;100.00;96580.63;5026979;28;20227;-76
2022/07/30 05:23:27;;;;;;;4.53;3.40;;;;;;;16.82;100.00;96583.91;5026871;28;20238;-76
2022/07/30 05:26:10;;;;;;;5.13;3.63;;;;;;;16.83;100.00;96586.38;5025026;28;20261;-77
2022/07/30 05:28:42;;;;;;;5.03;3.40;;;;;;;16.82;100.00;96586.63;5023054;28;20209;-77
2022/07/30 05:31:12;;;;;;;4.70;3.73;;;;;;;16.79;100.00;96589.88;5048702;28;20643;-77
2022/07/30 05:33:40;;;;;;;6.43;3.70;;;;;;;16.77;100.00;96587.41;5023308;28;20203;-78
2022/07/30 05:36:08;;;;;;;5.33;3.93;;;;;;;16.74;100.00;96587.13;5023123;28;20210;-78
2022/07/30 05:38:39;;;;;;;4.23;3.77;;;;;;;16.70;100.00;96580.53;5059916;28;20240;-77
2022/07/30 05:41:32;;;;;;;6.03;5.43;;;;;;;16.64;100.00;96583.25;5009309;28;20218;-78
2022/07/30 05:44:04;;;;;;;8.57;4.43;;;;;;;16.61;100.00;96588.41;5023609;28;20227;-77
2022/07/30 05:46:31;;;;;;;5.93;4.00;;;;;;;16.64;100.00;96585.97;5021858;28;20215;-77
2022/07/30 05:48:59;;;;;;;7.97;4.20;;;;;;;16.69;100.00;96600.72;5021176;28;20222;-77
2022/07/30 05:51:28;;;;;;;5.10;3.93;;;;;;;16.66;100.00;96584.91;5016848;28;20306;-77
2022/07/30 05:53:57;;;;;;;7.00;4.27;;;;;;;16.64;100.00;96588.72;5023623;28;20266;-77
2022/07/30 05:56:53;;;;;;;4.13;3.77;;;;;;;16.70;100.00;96596.91;5020437;28;20228;-79
2022/07/30 05:59:34;;;;;;;4.60;4.20;;;;;;;16.70;100.00;96589.56;5048781;28;20265;-78
2022/07/30 06:02:08;;;;;;;5.27;3.60;;;;;;;16.70;100.00;96583.28;5022991;28;20203;-77
2022/07/30 06:05:08;;;;;;;6.13;3.90;;;;;;;16.74;100.00;96592.59;4988370;28;20221;-77
2022/07/30 06:07:35;;;;;;;5.60;4.10;;;;;;;16.72;100.00;96590.13;5022486;28;20357;-78
2022/07/30 06:10:06;;;;;;;5.43;3.63;;;;;;;16.75;100.00;96595.06;5014899;28;20199;-79
2022/07/30 06:12:34;;;;;;;4.83;4.10;;;;;;;16.81;100.00;96596.72;5023178;28;20470;-77
2022/07/30 06:15:02;;;;;;;7.37;4.17;;;;;;;16.84;100.00;96598.09;5019516;28;20199;-79
2022/07/30 06:17:43;;;;;;;4.43;4.00;;;;;;;16.87;100.00;96587.47;5045310;28;20210;-77
2022/07/30 06:20:18;;;;;;;3.83;3.43;;;;;;;16.91;100.00;96590.50;5042987;28;20242;-77
2022/07/30 06:22:57;;;;;;;5.90;3.70;;;;;;;16.84;100.00;96595.38;5023260;28;20222;-77
2022/07/30 06:25:34;;;;;;;5.17;3.20;;;;;;;16.93;100.00;96596.50;5023966;28;20206;-78
2022/07/30 06:28:01;;;;;;;4.23;3.67;;;;;;;17.01;100.00;96598.75;5052574;28;20207;-77
2022/07/30 06:30:29;;;;;;;8.73;4.20;;;;;;;17.08;100.00;96585.69;5010662;28;20230;-79
2022/07/30 06:32:56;;;;;;;5.80;5.00;;;;;;;17.17;100.00;96599.66;5023183;28;20205;-78
2022/07/30 06:35:24;;;;;;;4.73;3.80;;;;;;;17.14;100.00;96608.34;5022823;28;20217;-78
2022/07/30 06:37:52;;;;;;;4.63;3.73;;;;;;;17.19;100.00;96606.44;5052928;28;20202;-80
2022/07/30 06:40:20;;;;;;;4.33;3.93;;;;;;;17.24;100.00;96606.50;5022026;28;20200;-78
2022/07/30 06:43:17;;;;;;;5.33;3.83;;;;;;;17.33;100.00;96606.81;5023640;28;20234;-79
2022/07/30 06:46:11;;;;;;;6.53;4.20;;;;;;;17.44;100.00;96613.94;5015978;28;20202;-78
2022/07/30 06:48:45;;;;;;;7.37;3.93;;;;;;;17.51;100.00;96624.63;5021695;28;20237;-78
2022/07/30 06:51:12;;;;;;;6.03;3.53;;;;;;;17.55;100.00;96612.88;5027741;28;20296;-78
2022/07/30 06:53:40;;;;;;;4.87;4.00;;;;;;;17.50;100.00;96617.53;5018062;28;20204;-78
2022/07/30 06:56:10;;;;;;;4.57;3.80;;;;;;;17.53;100.00;96609.59;5021651;28;20226;-78
2022/07/30 06:59:01;;;;;;;4.80;3.77;;;;;;;17.61;100.00;96622.72;5023460;28;20203;-78
2022/07/30 07:01:47;;;;;;;4.47;3.63;;;;;;;17.68;100.00;96615.16;5023638;28;20292;-78
2022/07/30 07:04:15;;;;;;;6.67;3.70;;;;;;;17.75;100.00;96614.91;5021847;28;20319;-77
2022/07/30 07:06:42;;;;;;;3.27;2.97;;;;;;;17.83;100.00;96617.09;5018387;28;20210;-78
2022/07/30 07:09:11;;;;;;;4.93;3.37;;;;;;;17.87;100.00;96618.19;5018149;28;20195;-78
2022/07/30 07:11:45;;;;;;;3.80;3.20;;;;;;;17.84;100.00;96629.69;5026353;28;20194;-78
2022/07/30 07:14:18;;;;;;;4.90;3.20;;;;;;;17.88;100.00;96630.75;5022351;28;20206;-77
2022/07/30 07:16:47;;;;;;;6.43;3.30;;;;;;;17.92;100.00;96626.41;5051076;28;20211;-79
2022/07/30 07:19:33;;;;;;;6.53;3.33;;;;;;;18.04;100.00;96632.44;5019925;28;20250;-78
2022/07/30 07:22:00;;;;;;;5.00;3.50;;;;;;;18.18;100.00;96629.19;5023373;28;20195;-78
2022/07/30 07:24:27;;;;;;;3.60;3.20;;;;;;;18.28;100.00;96623.75;5021981;28;20317;-78
2022/07/30 07:27:04;;;;;;;8.30;3.97;;;;;;;18.32;100.00;96636.56;5016377;28;20215;-78
2022/07/30 07:29:33;;;;;;;4.00;3.60;;;;;;;18.39;100.00;96628.91;5056464;28;20485;-78
2022/07/30 07:32:03;;;;;;;3.77;3.47;;;;;;;18.31;100.00;96625.91;5023183;28;20206;-78
2022/07/30 07:34:30;;;;;;;3.67;3.20;;;;;;;18.26;100.00;96626.75;5021409;28;20231;-79
2022/07/30 07:36:58;;;;;;;4.03;3.67;;;;;;;18.32;100.00;96620.16;5019764;28;20203;-78
2022/07/30 07:39:25;;;;;;;4.03;3.40;;;;;;;18.51;100.00;96623.19;5024119;28;20225;-78
2022/07/30 07:41:52;;;;;;;5.57;4.00;;;;;;;18.65;100.00;96621.56;5045388;28;20293;-78
2022/07/30 07:44:23;;;;;;;3.97;3.27;;;;;;;18.99;100.00;96613.56;5023994;28;20222;-78
2022/07/30 07:46:51;;;;;;;5.40;3.55;;;;;;;19.22;100.00;96617.66;5020564;28;20216;-80
2022/07/30 07:49:18;;;;;;;7.10;3.40;;;;;;;19.21;100.00;96616.81;5021908;28;20204;-80
2022/07/30 07:51:49;;;;;;;3.42;3.10;;;;;;;19.18;100.00;96622.84;5027829;28;20274;-80
2022/07/30 07:54:19;;;;;;;3.83;3.33;;;;;;;19.06;100.00;96618.75;5057031;28;20203;-80
2022/07/30 07:56:47;;;;;;;3.65;3.35;;;;;;;18.90;100.00;96616.06;5027860;28;20222;-80
2022/07/30 07:59:17;;;;;;;4.87;3.40;;;;;;;18.79;100.00;96624.56;5021419;28;20238;-80
2022/07/30 08:01:45;;;;;;;3.73;3.10;;;;;;;18.88;100.00;96617.44;5034021;28;20289;-80
2022/07/30 08:04:23;;;;;;;5.45;3.80;;;;;;;19.15;100.00;96612.44;5023696;28;20227;-80
2022/07/30 08:07:19;;;;;;;4.28;2.80;;;;;;;19.58;100.00;96621.06;4985549;28;20248;-80
2022/07/30 08:09:46;;;;;;;4.13;2.85;;;;;;;19.88;100.00;96620.94;5023576;28;20300;-79
2022/07/30 08:12:40;;;;;;;4.38;2.95;;;;;;;20.30;100.00;96614.91;5007291;28;20211;-80
2022/07/30 08:15:26;;;;;;;2.88;2.67;;;;;;;20.40;100.00;96627.75;5022639;28;20280;-81
2022/07/30 08:17:59;;;;;;;4.07;2.80;;;;;;;20.33;100.00;96622.53;5029721;28;20211;-80
2022/07/30 08:20:39;;;;;;;3.50;2.90;;;;;;;20.09;100.00;96616.13;5063519;28;20237;-80
2022/07/30 08:23:07;;;;;;;3.70;3.03;;;;;;;20.26;100.00;96619.31;5026933;28;20203;-80
2022/07/30 08:25:34;;;;;;;3.70;2.92;;;;;;;20.48;100.00;96627.16;5026159;28;20206;-80
2022/07/30 08:28:02;;;;;;;7.15;3.20;;;;;;;20.46;100.00;96623.88;5026975;28;20207;-80
2022/07/30 08:30:29;;;;;;;4.25;3.13;;;;;;;20.44;100.00;96622.50;5027568;28;20326;-80
2022/07/30 08:32:57;;;;;;;5.30;2.97;;;;;;;20.78;100.00;96620.56;5029583;28;20215;-80
2022/07/30 08:35:25;;;;;;;7.00;3.03;;;;;;;21.05;100.00;96617.28;5022269;28;20206;-79
2022/07/30 08:37:53;;;;;;;4.72;2.90;;;;;;;21.44;100.00;96631.72;5029224;28;20226;-80
2022/07/30 08:40:26;;;;;;;3.50;2.80;;;;;;;21.69;100.00;96622.31;5026424;28;20252;-79
2022/07/30 08:43:04;;;;;;;4.30;2.80;;;;;;;22.16;97.31;96624.22;5047376;28;20214;-80
2022/07/30 08:45:32;;;;;;;2.60;2.40;;;;;;;22.52;93.68;96618.16;5010305;28;20207;-80
2022/07/30 08:48:09;;;;;;;3.63;2.70;;;;;;;22.69;90.08;96620.38;5028739;28;20206;-79
2022/07/30 08:50:45;;;;;;;3.47;2.55;;;;;;;22.44;88.44;96621.59;5061120;28;20202;-80
2022/07/30 08:53:36;;;;;;;3.38;2.70;;;;;;;22.00;90.36;96624.72;5023539;28;20273;-80
2022/07/30 08:56:04;;;;;;;3.20;2.72;;;;;;;21.76;93.85;96628.31;5022748;28;20232;-80
2022/07/30 08:58:34;;;;;;;5.50;2.60;;;;;;;22.06;92.63;96626.28;5019829;28;20198;-80
2022/07/30 09:01:02;;;;;;;7.15;2.90;;;;;;;22.48;95.98;96628.94;5023576;28;20218;-81
2022/07/30 09:03:29;;;;;;;3.33;2.40;;;;;;;22.84;92.34;96617.38;5025982;28;20223;-80
2022/07/30 09:06:02;;;;;;;3.58;3.20;;;;;;;23.08;90.18;96620.78;5023767;28;20203;-80
2022/07/30 09:08:30;;;;;;;3.63;2.80;;;;;;;23.34;90.94;96616.44;5025265;28;20211;-80
2022/07/30 09:10:58;;;;;;;2.67;2.47;;;;;;;23.81;91.18;96619.13;5027022;28;20195;-81
2022/07/30 09:13:28;;;;;;;5.00;2.75;;;;;;;24.22;88.15;96616.31;5052985;28;20214;-78
2022/07/30 09:15:58;;;;;;;4.25;2.72;;;;;;;24.34;84.03;96613.81;5054477;28;20207;-78
2022/07/30 09:18:31;;;;;;;3.72;2.58;;;;;;;24.43;78.64;96618.28;5019855;28;20213;-78
2022/07/30 09:21:00;;;;;;;3.10;2.67;;;;;;;23.93;80.12;96617.47;5023942;28;20198;-78
2022/07/30 09:23:28;;;;;;;3.85;2.95;;;;;;;23.97;82.07;96615.72;5049406;28;20199;-78
2022/07/30 09:26:15;;;;;;;3.58;2.92;;;;;;;23.65;85.09;96610.34;5025152;28;20304;-78
2022/07/30 09:29:16;;;;;;;4.13;2.88;;;;;;;23.90;84.77;96615.34;5023271;28;20229;-78
2022/07/30 09:32:03;;;;;;;3.20;2.90;;;;;;;23.61;85.19;96606.56;5016209;28;20211;-78
2022/07/30 09:34:48;;;;;;;3.95;3.10;;;;;;;23.96;83.91;96605.81;5021667;28;20226;-78
2022/07/30 09:37:35;;;;;;;3.70;2.63;;;;;;;24.24;80.02;96605.78;5021514;28;20254;-78
2022/07/30 09:40:22;;;;;;;3.08;2.75;;;;;;;24.55;79.32;96594.81;5052239;28;20231;-79
2022/07/30 09:43:23;;;;;;;3.75;2.80;;;;;;;24.68;75.07;96591.97;4995967;28;20215;-81
2022/07/30 09:45:59;;;;;;;5.72;4.18;;;;;;;24.55;76.43;96590.13;5006787;28;20213;-81
2022/07/30 09:48:27;;;;;;;6.93;4.00;;;;;;;24.43;74.89;96582.38;5004041;28;20222;-79
2022/07/30 09:50:55;;;;;;;5.22;2.80;;;;;;;24.63;73.22;96589.38;5042708;28;20218;-78
2022/07/30 09:53:22;;;;;;;4.10;2.72;;;;;;;24.79;74.59;96587.03;5040254;28;20219;-78
2022/07/30 09:55:51;;;;;;;3.08;2.63;;;;;;;24.80;76.79;96588.66;5005791;28;20226;-78
2022/07/30 09:58:18;;;;;;;3.20;2.83;;;;;;;24.89;72.67;96592.28;5010096;28;20215;-78
2022/07/30 10:00:47;;;;;;;3.67;2.85;;;;;;;25.18;67.85;96583.53;5010669;28;20206;-78
2022/07/30 10:03:44;;;;;;;3.55;2.78;;;;;;;25.14;67.27;96572.31;5022281;28;20207;-79
2022/07/30 10:06:34;;;;;;;2.90;2.70;;;;;;;25.21;68.29;96580.94;5025634;28;20287;-79
2022/07/30 10:09:06;;;;;;;4.00;3.05;;;;;;;25.24;67.77;96573.97;5039476;28;20211;-79
2022/07/30 10:11:33;;;;;;;4.47;3.30;;;;;;;25.44;66.16;96578.09;5006194;28;20245;-78
2022/07/30 10:14:03;;;;;;;3.13;2.58;;;;;;;25.60;63.18;96579.34;5024435;28;20218;-79
2022/07/30 10:16:32;;;;;;;3.42;2.80;;;;;;;25.88;63.92;96582.66;5008989;28;20206;-79
2022/07/30 10:19:00;;;;;;;4.80;2.67;;;;;;;26.09;62.92;96575.38;5010906;28;20273;-79
2022/07/30 10:21:46;;;;;;;6.18;2.30;;;;;;;26.21;60.27;96577.47;5019753;28;20210;-79
2022/07/30 10:24:20;;;;;;;4.22;2.70;;;;;;;26.34;57.68;96571.84;5012330;28;20222;-79
2022/07/30 10:27:08;;;;;;;3.35;2.78;;;;;;;26.41;60.61;96564.97;5010434;28;20253;-79
2022/07/30 10:29:55;;;;;;;3.20;2.47;;;;;;;26.53;57.40;96571.50;5010139;28;20287;-79
2022/07/30 10:32:26;;;;;;;2.88;2.40;;;;;;;26.67;57.51;96558.28;5008662;28;20389;-81
2022/07/30 10:34:53;;;;;;;2.80;2.50;;;;;;;26.81;53.47;96560.84;5009182;28;20220;-82
2022/07/30 10:37:22;;;;;;;3.03;2.20;;;;;;;26.93;54.23;96555.47;5015822;28;20211;-77
2022/07/30 10:39:54;;;;;;;3.33;2.58;;;;;;;27.03;53.10;96555.13;5007523;28;20211;-77
2022/07/30 10:42:37;;;;;;;3.15;2.40;;;;;;;26.79;54.27;96562.34;5007758;28;20238;-78
2022/07/30 10:45:18;;;;;;;2.78;2.42;;;;;;;26.29;54.99;96557.31;5004874;28;20236;-77
2022/07/30 10:47:47;;;;;;;4.20;2.70;;;;;;;25.99;55.79;96559.06;5038571;28;20206;-78
2022/07/30 10:50:16;;;;;;;3.38;2.45;;;;;;;26.05;55.97;96560.53;5007847;28;20222;-78
2022/07/30 10:52:50;;;;;;;2.58;2.30;;;;;;;26.23;57.56;96559.41;5041787;28;20285;-78
2022/07/30 10:55:19;;;;;;;2.60;2.40;;;;;;;26.49;55.48;96561.38;5007934;28;20217;-78
2022/07/30 10:58:00;;;;;;;5.15;2.70;;;;;;;26.56;56.39;96562.53;5017165;28;20238;-78
2022/07/30 11:00:29;;;;;;;3.20;2.50;;;;;;;26.73;54.66;96568.03;5006307;28;20198;-78
2022/07/30 11:03:25;;;;;;;3.17;2.28;;;;;;;26.89;54.61;96560.00;5008365;28;20293;-78
2022/07/30 11:06:13;;;;;;;2.63;2.40;;;;;;;26.95;52.80;96555.16;4980713;28;20249;-78
2022/07/30 11:08:44;;;;;;;2.40;2.20;;;;;;;27.07;52.05;96555.28;5015338;28;20206;-81
2022/07/30 11:11:43;;;;;;;5.10;2.70;;;;;;;27.15;52.85;96551.66;5007668;28;20211;-80
2022/07/30 11:14:11;;;;;;;5.10;2.80;;;;;;;27.07;50.56;96550.53;5020431;28;20191;-81
2022/07/30 11:17:00;;;;;;;3.80;2.25;;;;;;;27.13;50.27;96558.69;5019149;28;20230;-80
2022/07/30 11:19:27;;;;;;;4.35;2.22;;;;;;;27.34;50.50;96554.03;5034144;28;20239;-81
2022/07/30 11:22:24;;;;;;;2.63;2.40;;;;;;;27.41;49.20;96557.91;5050861;28;20207;-81
2022/07/30 11:24:52;;;;;;;3.08;2.30;;;;;;;27.46;48.22;96554.16;5019208;28;20230;-81
2022/07/30 11:27:45;;;;;;;5.28;2.50;;;;;;;27.50;48.88;96552.31;5020218;28;20218;-81
2022/07/30 11:30:33;;;;;;;5.40;2.45;;;;;;;27.48;49.08;96543.50;5005045;28;20219;-81
2022/07/30 11:33:23;;;;;;;4.15;2.40;;;;;;;27.67;47.56;96541.16;5031154;28;20230;-81
2022/07/30 11:36:08;;;;;;;5.80;2.63;;;;;;;27.67;46.85;96529.25;5020517;28;20211;-81
2022/07/30 11:38:53;;;;;;;3.40;2.20;;;;;;;27.77;46.17;96534.41;5020330;28;20233;-81
2022/07/30 11:41:22;;;;;;;2.30;2.10;;;;;;;27.90;47.05;96536.13;5016522;28;20199;-81
2022/07/30 11:43:49;;;;;;;4.97;2.20;;;;;;;27.99;46.55;96536.03;5029158;28;20199;-80
2022/07/30 11:46:21;;;;;;;4.07;2.35;;;;;;;27.31;46.10;96529.72;5060016;28;20259;-81
2022/07/30 11:48:56;;;;;;;5.70;2.45;;;;;;;27.23;48.55;96533.34;5027501;28;20198;-81
2022/07/30 11:51:24;;;;;;;2.40;2.20;;;;;;;27.36;46.90;96529.56;5019462;28;20210;-81
2022/07/30 11:54:02;;;;;;;2.95;2.20;;;;;;;27.70;47.18;96528.59;5018758;28;20254;-78